createdAt,value
2018-06-11T00:01:01.646Z,8.50
2018-06-11T00:02:08.439Z,8.70
2018-06-11T00:03:15.142Z,10.10
2018-06-11T00:04:21.926Z,10.50
2018-06-11T00:05:29.139Z,10.30
2018-06-11T00:06:35.579Z,9.50
2018-06-11T00:07:42.592Z,9.90
2018-06-11T00:08:49.510Z,11.00
2018-06-11T00:09:56.201Z,10.30
2018-06-11T00:11:03.450Z,9.70
2018-06-11T00:12:10.181Z,10.10
2018-06-11T00:13:16.862Z,9.80
2018-06-11T00:14:23.610Z,10.50
2018-06-11T00:15:30.294Z,10.80
2018-06-11T00:16:37.134Z,9.80
2018-06-11T00:17:44.002Z,9.70
2018-06-11T00:18:50.770Z,10.40
2018-06-11T00:19:57.542Z,10.50
2018-06-11T00:21:04.217Z,10.70
2018-06-11T00:22:11.040Z,10.30
2018-06-11T00:23:17.827Z,11.40
2018-06-11T00:24:24.563Z,9.80
2018-06-11T00:25:31.289Z,9.80
2018-06-11T00:26:38.148Z,11.70
2018-06-11T00:27:44.830Z,11.30
2018-06-11T00:28:51.623Z,11.30
2018-06-11T00:29:58.302Z,11.70
2018-06-11T00:31:05.014Z,11.20
2018-06-11T00:32:11.870Z,11.30
2018-06-11T00:33:18.580Z,11.40
2018-06-11T00:34:25.433Z,12.00
2018-06-11T00:35:32.151Z,11.10
2018-06-11T00:36:38.956Z,12.60
2018-06-11T00:37:45.782Z,12.10
2018-06-11T00:38:52.426Z,11.90
2018-06-11T00:39:59.721Z,11.80
2018-06-11T00:41:06.632Z,10.90
2018-06-11T00:42:13.457Z,12.50
2018-06-11T00:43:20.275Z,11.80
2018-06-11T00:44:26.991Z,12.20
2018-06-11T00:45:33.782Z,11.70
2018-06-11T00:46:40.502Z,11.90
2018-06-11T00:47:47.251Z,11.10
2018-06-11T00:48:53.970Z,11.30
2018-06-11T00:50:00.687Z,11.00
2018-06-11T00:51:07.538Z,11.10
2018-06-11T00:52:14.284Z,11.80
2018-06-11T00:53:21.116Z,11.40
2018-06-11T00:54:28.146Z,11.50
2018-06-11T00:55:34.999Z,11.40
2018-06-11T00:56:41.933Z,11.80
2018-06-11T00:57:48.721Z,12.40
2018-06-11T00:58:55.441Z,12.30
2018-06-11T01:00:02.514Z,12.70
2018-06-11T01:01:09.444Z,12.60
2018-06-11T01:02:16.155Z,12.40
2018-06-11T01:03:22.855Z,13.00
2018-06-11T01:04:29.604Z,13.80
2018-06-11T01:05:36.342Z,13.20
2018-06-11T01:06:43.162Z,13.90
2018-06-11T01:07:49.870Z,12.40
2018-06-11T01:08:57.125Z,12.80
2018-06-11T01:10:03.874Z,13.40
2018-06-11T01:11:10.614Z,13.10
2018-06-11T01:12:17.296Z,11.90
2018-06-11T01:13:24.027Z,13.20
2018-06-11T01:14:30.784Z,13.10
2018-06-11T01:15:37.536Z,12.40
2018-06-11T01:16:44.341Z,12.80
2018-06-11T01:17:51.166Z,13.20
2018-06-11T01:18:57.882Z,12.40
2018-06-11T01:20:04.582Z,13.90
2018-06-11T01:21:11.345Z,12.60
2018-06-11T01:22:18.215Z,13.70
2018-06-11T01:23:25.116Z,12.60
2018-06-11T01:24:31.789Z,13.80
2018-06-11T01:25:38.527Z,12.80
2018-06-11T01:26:45.271Z,14.30
2018-06-11T01:27:52.090Z,13.20
2018-06-11T01:28:58.934Z,13.70
2018-06-11T01:30:05.661Z,13.70
2018-06-11T01:31:12.434Z,12.50
2018-06-11T01:32:19.194Z,12.90
2018-06-11T01:33:25.919Z,12.60
2018-06-11T01:34:32.689Z,11.90
2018-06-11T01:35:39.407Z,12.30
2018-06-11T01:36:46.110Z,12.50
2018-06-11T01:37:52.818Z,13.00
2018-06-11T01:39:00.262Z,13.40
2018-06-11T01:40:06.898Z,12.90
2018-06-11T01:41:13.665Z,13.10
2018-06-11T01:42:20.586Z,13.70
2018-06-11T01:43:27.303Z,13.70
2018-06-11T01:44:33.926Z,14.20
2018-06-11T01:45:41.199Z,14.50
2018-06-11T01:46:48.053Z,15.90
2018-06-11T01:47:54.907Z,16.10
2018-06-11T01:49:01.694Z,16.20
2018-06-11T01:50:08.378Z,14.70
2018-06-11T01:51:15.670Z,14.90
2018-06-11T01:52:22.481Z,13.90
2018-06-11T01:53:29.465Z,14.30
2018-06-11T01:54:36.123Z,13.60
2018-06-11T01:55:42.973Z,13.60
2018-06-11T01:56:49.706Z,14.10
2018-06-11T01:57:56.430Z,15.00
2018-06-11T01:59:03.174Z,15.70
2018-06-11T02:00:09.879Z,15.80
2018-06-11T02:01:16.845Z,16.30
2018-06-11T02:02:23.541Z,17.90
2018-06-11T02:03:30.329Z,17.30
2018-06-11T02:04:36.994Z,16.90
2018-06-11T02:05:43.714Z,16.40
2018-06-11T02:06:50.350Z,15.30
2018-06-11T02:07:57.486Z,16.90
2018-06-11T02:09:04.606Z,16.20
2018-06-11T02:10:11.566Z,15.70
2018-06-11T02:11:18.376Z,15.50
2018-06-11T02:12:25.082Z,15.80
2018-06-11T02:13:31.908Z,16.10
2018-06-11T02:14:38.559Z,16.30
2018-06-11T02:15:45.798Z,15.30
2018-06-11T02:16:52.533Z,16.30
2018-06-11T02:17:59.286Z,16.60
2018-06-11T02:19:06.163Z,16.30
2018-06-11T02:20:12.698Z,15.90
2018-06-11T02:21:19.490Z,16.80
2018-06-11T02:22:26.213Z,15.40
2018-06-11T02:23:32.994Z,16.80
2018-06-11T02:24:39.744Z,15.90
2018-06-11T02:25:46.479Z,16.70
2018-06-11T02:26:53.194Z,15.70
2018-06-11T02:27:59.946Z,16.00
2018-06-11T02:29:06.727Z,16.90
2018-06-11T02:30:13.488Z,16.80
2018-06-11T02:31:20.266Z,18.30
2018-06-11T02:32:27.130Z,17.20
2018-06-11T02:33:34.033Z,19.20
2018-06-11T02:34:40.745Z,17.10
2018-06-11T02:35:47.486Z,18.30
2018-06-11T02:36:54.220Z,18.40
2018-06-11T02:38:01.015Z,17.20
2018-06-11T02:39:07.770Z,18.40
2018-06-11T02:40:14.484Z,17.60
2018-06-11T02:41:21.186Z,18.20
2018-06-11T02:42:28.038Z,18.30
2018-06-11T02:43:34.755Z,19.20
2018-06-11T02:44:41.470Z,19.10
2018-06-11T02:45:48.209Z,20.10
2018-06-11T02:46:54.947Z,18.70
2018-06-11T02:48:01.670Z,20.20
2018-06-11T02:49:08.598Z,18.00
2018-06-11T02:50:15.328Z,19.00
2018-06-11T02:51:22.066Z,19.30
2018-06-11T02:52:28.934Z,18.40
2018-06-11T02:53:35.608Z,16.40
2018-06-11T02:54:42.328Z,17.60
2018-06-11T02:55:49.098Z,17.00
2018-06-11T02:56:55.835Z,19.90
2018-06-11T02:58:02.554Z,22.20
2018-06-11T02:59:09.380Z,22.20
2018-06-11T03:00:16.098Z,19.80
2018-06-11T03:01:22.806Z,22.50
2018-06-11T03:02:29.707Z,21.70
2018-06-11T03:03:36.389Z,21.70
2018-06-11T03:04:43.348Z,19.50
2018-06-11T03:05:50.107Z,19.80
2018-06-11T03:06:56.963Z,19.60
2018-06-11T03:08:03.682Z,20.30
2018-06-11T03:09:10.409Z,19.40
2018-06-11T03:10:17.383Z,19.00
2018-06-11T03:11:24.046Z,18.60
2018-06-11T03:12:31.274Z,19.10
2018-06-11T03:13:38.226Z,19.70
2018-06-11T03:14:44.944Z,20.00
2018-06-11T03:15:51.671Z,20.60
2018-06-11T03:16:58.391Z,20.70
2018-06-11T03:18:05.442Z,20.80
2018-06-11T03:19:12.136Z,21.40
2018-06-11T03:20:18.888Z,20.50
2018-06-11T03:21:25.811Z,21.00
2018-06-11T03:22:32.754Z,24.70
2018-06-11T03:23:39.515Z,22.40
2018-06-11T03:24:46.146Z,24.40
2018-06-11T03:25:52.924Z,23.10
2018-06-11T03:26:59.591Z,21.20
2018-06-11T03:28:06.440Z,23.80
2018-06-11T03:29:13.359Z,20.40
2018-06-11T03:30:20.587Z,19.20
2018-06-11T03:31:27.224Z,19.10
2018-06-11T03:32:34.051Z,20.30
2018-06-11T03:33:41.322Z,19.00
2018-06-11T03:34:48.206Z,20.80
2018-06-11T03:35:54.986Z,22.30
2018-06-11T03:37:02.133Z,21.10
2018-06-11T03:38:09.489Z,21.30
2018-06-11T03:39:15.753Z,21.00
2018-06-11T03:40:22.524Z,20.70
2018-06-11T03:41:29.369Z,19.50
2018-06-11T03:42:36.357Z,18.80
2018-06-11T03:43:43.046Z,19.80
2018-06-11T03:44:49.794Z,19.70
2018-06-11T03:45:56.492Z,18.40
2018-06-11T03:47:03.727Z,21.80
2018-06-11T03:48:10.707Z,19.40
2018-06-11T03:49:17.495Z,21.60
2018-06-11T03:50:24.339Z,20.80
2018-06-11T03:51:31.131Z,20.30
2018-06-11T03:52:38.083Z,23.30
2018-06-11T03:53:44.718Z,20.70
2018-06-11T03:54:51.870Z,22.40
2018-06-11T03:55:59.115Z,22.70
2018-06-11T03:57:05.849Z,22.60
2018-06-11T03:58:12.590Z,22.50
2018-06-11T03:59:19.279Z,22.10
2018-06-11T04:00:25.968Z,22.30
2018-06-11T04:01:32.657Z,21.20
2018-06-11T04:02:39.411Z,21.80
2018-06-11T04:03:46.131Z,22.90
2018-06-11T04:04:52.850Z,22.50
2018-06-11T04:05:59.590Z,21.40
2018-06-11T04:07:06.312Z,22.90
2018-06-11T04:08:13.081Z,23.10
2018-06-11T04:09:19.855Z,23.80
2018-06-11T04:10:26.522Z,23.00
2018-06-11T04:11:33.654Z,24.20
2018-06-11T04:12:41.198Z,23.10
2018-06-11T04:13:47.949Z,22.20
2018-06-11T04:14:54.673Z,23.50
2018-06-11T04:16:01.457Z,22.80
2018-06-11T04:17:08.334Z,24.10
2018-06-11T04:18:15.041Z,23.00
2018-06-11T04:19:21.804Z,24.90
2018-06-11T04:20:28.664Z,24.70
2018-06-11T04:21:35.381Z,25.00
2018-06-11T04:22:42.191Z,25.40
2018-06-11T04:23:48.947Z,25.30
2018-06-11T04:24:55.658Z,24.10
2018-06-11T04:26:02.415Z,25.60
2018-06-11T04:27:09.263Z,26.00
2018-06-11T04:28:16.012Z,24.20
2018-06-11T04:29:22.755Z,25.10
2018-06-11T04:30:29.485Z,23.40
2018-06-11T04:31:36.310Z,25.80
2018-06-11T04:32:43.070Z,25.00
2018-06-11T04:33:49.772Z,24.70
2018-06-11T04:34:56.511Z,28.80
2018-06-11T04:36:03.248Z,27.10
2018-06-11T04:37:09.953Z,27.70
2018-06-11T04:38:16.775Z,29.10
2018-06-11T04:39:23.590Z,32.30
2018-06-11T04:40:30.273Z,33.10
2018-06-11T04:41:36.898Z,33.30
2018-06-11T04:42:44.066Z,32.50
2018-06-11T04:43:51.297Z,31.50
2018-06-11T04:44:57.926Z,32.90
2018-06-11T04:46:05.186Z,32.50
2018-06-11T04:47:11.947Z,33.00
2018-06-11T04:48:18.642Z,33.80
2018-06-11T04:49:25.443Z,31.90
2018-06-11T04:50:32.162Z,33.70
2018-06-11T04:51:39.287Z,32.60
2018-06-11T04:52:46.014Z,33.00
2018-06-11T04:53:52.726Z,32.60
2018-06-11T04:54:59.502Z,32.90
2018-06-11T04:56:06.188Z,33.00
2018-06-11T04:57:12.803Z,31.80
2018-06-11T04:58:20.077Z,34.00
2018-06-11T04:59:26.817Z,34.20
2018-06-11T05:00:33.531Z,34.20
2018-06-11T05:01:40.194Z,32.50
2018-06-11T05:02:46.894Z,33.60
2018-06-11T05:03:53.635Z,33.40
2018-06-11T05:05:00.388Z,31.90
2018-06-11T05:06:07.338Z,29.80
2018-06-11T05:07:14.040Z,30.40
2018-06-11T05:08:20.870Z,32.90
2018-06-11T05:09:27.638Z,32.30
2018-06-11T05:10:34.442Z,33.50
2018-06-11T05:11:41.769Z,35.00
2018-06-11T05:12:48.490Z,34.90
2018-06-11T05:13:55.459Z,36.20
2018-06-11T05:15:02.572Z,36.10
2018-06-11T05:16:09.318Z,36.10
2018-06-11T05:17:16.128Z,36.40
2018-06-11T05:18:22.943Z,34.10
2018-06-11T05:19:29.767Z,36.10
2018-06-11T05:20:36.616Z,36.20
2018-06-11T05:21:43.342Z,37.90
2018-06-11T05:22:50.136Z,35.50
2018-06-11T05:23:56.887Z,36.60
2018-06-11T05:25:03.641Z,34.00
2018-06-11T05:26:10.478Z,34.30
2018-06-11T05:27:17.151Z,35.70
2018-06-11T05:28:23.970Z,35.10
2018-06-11T05:29:30.973Z,34.40
2018-06-11T05:30:37.633Z,33.80
2018-06-11T05:31:44.334Z,34.40
2018-06-11T05:32:51.126Z,35.70
2018-06-11T05:33:57.829Z,35.20
2018-06-11T05:35:04.536Z,33.30
2018-06-11T05:36:11.348Z,33.70
2018-06-11T05:37:18.019Z,33.80
2018-06-11T05:38:25.218Z,34.80
2018-06-11T05:39:31.970Z,35.40
2018-06-11T05:40:38.686Z,34.70
2018-06-11T05:41:45.380Z,36.30
2018-06-11T05:42:52.114Z,36.50
2018-06-11T05:43:58.854Z,35.30
2018-06-11T05:45:05.570Z,33.90
2018-06-11T05:46:12.403Z,36.40
2018-06-11T05:47:19.106Z,36.90
2018-06-11T05:48:25.858Z,36.30
2018-06-11T05:49:32.703Z,33.70
2018-06-11T05:50:39.397Z,35.00
2018-06-11T05:51:46.117Z,36.90
2018-06-11T05:52:53.358Z,35.20
2018-06-11T05:53:59.622Z,34.20
2018-06-11T05:55:06.410Z,32.40
2018-06-11T05:56:13.144Z,34.10
2018-06-11T05:57:19.848Z,35.70
2018-06-11T05:58:26.618Z,34.60
2018-06-11T05:59:33.358Z,36.10
2018-06-11T06:00:40.075Z,34.40
2018-06-11T06:01:46.839Z,32.00
2018-06-11T06:02:53.627Z,32.80
2018-06-11T06:04:01.147Z,33.10
2018-06-11T06:05:07.579Z,33.40
2018-06-11T06:06:14.406Z,30.60
2018-06-11T06:07:21.134Z,30.80
2018-06-11T06:08:27.911Z,31.40
2018-06-11T06:09:34.571Z,33.10
2018-06-11T06:10:41.306Z,33.10
2018-06-11T06:11:48.032Z,32.20
2018-06-11T06:12:54.754Z,31.40
2018-06-11T06:14:01.573Z,33.90
2018-06-11T06:15:08.522Z,35.80
2018-06-11T06:16:15.493Z,38.20
2018-06-11T06:17:22.155Z,39.10
2018-06-11T06:18:29.442Z,42.10
2018-06-11T06:19:36.301Z,39.50
2018-06-11T06:20:42.957Z,38.40
2018-06-11T06:21:49.674Z,37.00
2018-06-11T06:22:56.421Z,36.80
2018-06-11T06:24:03.156Z,33.40
2018-06-11T06:25:10.088Z,34.30
2018-06-11T06:26:16.921Z,33.20
2018-06-11T06:27:23.607Z,32.90
2018-06-11T06:28:30.454Z,33.30
2018-06-11T06:29:37.194Z,31.70
2018-06-11T06:30:43.887Z,30.80
2018-06-11T06:31:50.538Z,32.60
2018-06-11T06:32:57.743Z,33.10
2018-06-11T06:34:04.594Z,33.00
2018-06-11T06:35:11.451Z,33.40
2018-06-11T06:36:18.270Z,32.10
2018-06-11T06:37:25.254Z,31.40
2018-06-11T06:38:31.987Z,31.30
2018-06-11T06:39:38.757Z,29.70
2018-06-11T06:40:45.518Z,30.90
2018-06-11T06:41:52.267Z,31.20
2018-06-11T06:42:58.994Z,31.40
2018-06-11T06:44:05.917Z,32.40
2018-06-11T06:45:12.873Z,30.10
2018-06-11T06:46:19.709Z,29.40
2018-06-11T06:47:26.363Z,31.40
2018-06-11T06:48:33.568Z,30.60
2018-06-11T06:49:40.572Z,30.40
2018-06-11T06:50:47.482Z,30.30
2018-06-11T06:51:54.258Z,30.30
2018-06-11T06:53:01.050Z,29.60
2018-06-11T06:54:07.847Z,30.80
2018-06-11T06:55:14.490Z,31.90
2018-06-11T06:56:21.266Z,30.40
2018-06-11T06:57:28.151Z,32.30
2018-06-11T06:58:34.889Z,30.30
2018-06-11T06:59:41.577Z,31.30
2018-06-11T07:00:48.427Z,31.90
2018-06-11T07:01:55.118Z,30.70
2018-06-11T07:03:01.946Z,30.50
2018-06-11T07:04:08.622Z,30.60
2018-06-11T07:05:15.754Z,29.00
2018-06-11T07:06:22.480Z,29.60
2018-06-11T07:07:29.199Z,28.90
2018-06-11T07:08:35.962Z,30.60
2018-06-11T07:09:42.653Z,29.60
2018-06-11T07:10:49.722Z,29.70
2018-06-11T07:11:56.466Z,31.50
2018-06-11T07:13:03.463Z,31.30
2018-06-11T07:14:10.137Z,31.00
2018-06-11T07:15:16.858Z,30.10
2018-06-11T07:16:23.648Z,30.40
2018-06-11T07:17:30.439Z,30.80
2018-06-11T07:18:37.311Z,29.30
2018-06-11T07:19:44.034Z,30.60
2018-06-11T07:20:50.811Z,29.90
2018-06-11T07:21:57.862Z,29.40
2018-06-11T07:23:04.718Z,30.30
2018-06-11T07:24:11.521Z,31.90
2018-06-11T07:25:18.355Z,30.70
2018-06-11T07:26:25.231Z,29.70
2018-06-11T07:27:32.154Z,29.60
2018-06-11T07:28:38.943Z,30.60
2018-06-11T07:29:45.879Z,30.80
2018-06-11T07:30:52.733Z,31.70
2018-06-11T07:31:59.402Z,32.30
2018-06-11T07:33:06.186Z,33.10
2018-06-11T07:34:13.146Z,30.80
2018-06-11T07:35:20.000Z,29.90
2018-06-11T07:36:26.964Z,30.60
2018-06-11T07:37:33.991Z,31.70
2018-06-11T07:38:40.819Z,30.00
2018-06-11T07:39:47.650Z,31.10
2018-06-11T07:40:54.981Z,32.50
2018-06-11T07:42:01.196Z,29.40
2018-06-11T07:43:07.934Z,29.00
2018-06-11T07:44:14.940Z,30.10
2018-06-11T07:45:21.775Z,31.30
2018-06-11T07:46:28.518Z,31.50
2018-06-11T07:47:35.243Z,29.80
2018-06-11T07:48:42.063Z,31.20
2018-06-11T07:49:48.839Z,30.30
2018-06-11T07:50:55.825Z,29.00
2018-06-11T07:52:02.571Z,30.20
2018-06-11T07:53:09.274Z,30.70
2018-06-11T07:54:16.411Z,28.70
2018-06-11T07:55:23.238Z,29.00
2018-06-11T07:56:29.982Z,29.90
2018-06-11T07:57:36.859Z,29.00
2018-06-11T07:58:43.599Z,31.30
2018-06-11T07:59:50.342Z,29.00
2018-06-11T08:00:57.241Z,29.30
2018-06-11T08:02:04.376Z,30.90
2018-06-11T08:03:10.962Z,31.90
2018-06-11T08:04:17.854Z,30.80
2018-06-11T08:05:24.603Z,31.10
2018-06-11T08:06:31.346Z,32.40
2018-06-11T08:07:38.256Z,29.10
2018-06-11T08:08:45.036Z,31.60
2018-06-11T08:09:51.698Z,32.40
2018-06-11T08:10:58.496Z,29.70
2018-06-11T08:12:05.286Z,28.10
2018-06-11T08:13:12.047Z,29.40
2018-06-11T08:14:19.166Z,30.60
2018-06-11T08:16:32.701Z,29.00
2018-06-11T08:17:40.311Z,29.50
2018-06-11T08:18:46.596Z,27.70
2018-06-11T08:19:53.563Z,28.10
2018-06-11T08:21:00.253Z,27.30
2018-06-11T08:22:07.236Z,27.90
2018-06-11T08:23:14.342Z,28.80
2018-06-11T08:24:21.198Z,29.00
2018-06-11T08:25:28.212Z,28.60
2018-06-11T08:26:34.865Z,28.00
2018-06-11T08:27:41.924Z,26.60
2018-06-11T08:28:48.695Z,26.90
2018-06-11T08:29:55.460Z,28.90
2018-06-11T08:31:03.654Z,26.20
2018-06-11T08:32:09.122Z,25.70
2018-06-11T08:33:16.691Z,26.90
2018-06-11T08:34:22.637Z,26.70
2018-06-11T08:35:29.543Z,27.40
2018-06-11T08:36:36.461Z,29.20
2018-06-11T08:37:43.431Z,27.80
2018-06-11T08:38:50.354Z,24.50
2018-06-11T08:39:57.149Z,26.70
2018-06-11T08:41:05.255Z,28.40
2018-06-11T08:42:11.239Z,26.30
2018-06-11T08:43:18.137Z,26.30
2018-06-11T08:44:24.893Z,26.30
2018-06-11T08:45:31.607Z,28.30
2018-06-11T08:46:38.481Z,26.90
2018-06-11T08:47:45.316Z,27.70
2018-06-11T08:48:52.065Z,27.20
2018-06-11T08:49:58.974Z,27.10
2018-06-11T08:51:05.883Z,27.60
2018-06-11T08:52:12.838Z,26.10
2018-06-11T08:53:19.595Z,27.10
2018-06-11T08:54:26.347Z,26.10
2018-06-11T08:55:33.154Z,26.60
2018-06-11T08:56:40.070Z,26.70
2018-06-11T08:57:47.040Z,25.00
2018-06-11T08:58:53.803Z,28.30
2018-06-11T09:00:00.895Z,27.70
2018-06-11T09:01:07.891Z,26.20
2018-06-11T09:02:14.782Z,25.60
2018-06-11T09:03:21.570Z,25.90
2018-06-11T09:04:28.634Z,26.20
2018-06-11T09:05:35.520Z,25.00
2018-06-11T09:06:42.206Z,25.40
2018-06-11T09:07:48.926Z,26.20
2018-06-11T09:08:56.075Z,24.80
2018-06-11T09:10:02.823Z,27.20
2018-06-11T09:11:09.753Z,26.80
2018-06-11T09:12:16.490Z,26.00
2018-06-11T09:13:23.475Z,26.90
2018-06-11T09:14:30.185Z,27.20
2018-06-11T09:15:37.026Z,28.90
2018-06-11T09:16:43.723Z,27.20
2018-06-11T09:17:50.846Z,27.70
2018-06-11T09:18:57.639Z,26.20
2018-06-11T09:20:06.473Z,23.80
2018-06-11T09:21:11.399Z,24.60
2018-06-11T09:22:18.154Z,25.40
2018-06-11T09:23:24.979Z,24.40
2018-06-11T09:24:31.907Z,23.60
2018-06-11T09:25:38.687Z,25.30
2018-06-11T09:26:45.471Z,25.00
2018-06-11T09:27:52.407Z,26.60
2018-06-11T09:28:59.199Z,25.30
2018-06-11T09:30:05.974Z,24.10
2018-06-11T09:31:12.783Z,25.70
2018-06-11T09:32:19.422Z,25.70
2018-06-11T09:33:26.658Z,26.70
2018-06-11T09:34:33.391Z,26.70
2018-06-11T09:35:40.174Z,26.80
2018-06-11T09:36:46.841Z,27.60
2018-06-11T09:37:53.726Z,27.40
2018-06-11T09:39:00.586Z,26.10
2018-06-11T09:40:07.461Z,26.10
2018-06-11T09:41:14.197Z,24.70
2018-06-11T09:42:21.290Z,24.20
2018-06-11T09:43:28.046Z,24.10
2018-06-11T09:44:34.943Z,25.60
2018-06-11T09:45:41.962Z,28.00
2018-06-11T09:46:51.129Z,25.60
2018-06-11T09:47:55.570Z,23.80
2018-06-11T09:49:05.553Z,23.50
2018-06-11T09:50:09.470Z,23.70
2018-06-11T09:51:16.319Z,25.20
2018-06-11T09:52:23.358Z,23.80
2018-06-11T09:53:30.080Z,24.60
2018-06-11T09:54:37.091Z,26.20
2018-06-11T09:55:43.575Z,27.50
2018-06-11T09:56:50.286Z,25.30
2018-06-11T09:57:57.295Z,27.60
2018-06-11T09:59:04.210Z,26.80
2018-06-11T10:00:11.079Z,26.10
2018-06-11T10:01:18.166Z,26.20
2018-06-11T10:02:25.095Z,27.80
2018-06-11T10:03:36.652Z,25.70
2018-06-11T10:04:38.905Z,25.30
2018-06-11T10:05:45.900Z,26.00
2018-06-11T10:06:52.859Z,28.70
2018-06-11T10:07:59.983Z,27.40
2018-06-11T10:09:06.941Z,26.60
2018-06-11T10:10:14.039Z,27.50
2018-06-11T10:11:20.998Z,24.30
2018-06-11T10:12:27.957Z,28.10
2018-06-11T10:13:36.509Z,26.60
2018-06-11T10:14:41.940Z,27.60
2018-06-11T10:15:52.433Z,27.20
2018-06-11T10:16:57.759Z,27.30
2018-06-11T10:18:02.695Z,26.40
2018-06-11T10:19:09.524Z,24.70
2018-06-11T10:20:16.450Z,26.00
2018-06-11T10:21:23.238Z,25.40
2018-06-11T10:22:29.965Z,26.60
2018-06-11T10:23:36.723Z,26.10
2018-06-11T10:24:43.976Z,25.70
2018-06-11T10:25:51.627Z,25.90
2018-06-11T10:26:58.026Z,26.10
2018-06-11T10:28:04.956Z,25.50
2018-06-11T10:29:16.012Z,27.40
2018-06-11T10:30:18.994Z,27.30
2018-06-11T10:31:25.914Z,26.10
2018-06-11T10:32:33.879Z,24.20
2018-06-11T10:33:41.741Z,26.50
2018-06-11T10:34:47.558Z,25.90
2018-06-11T10:35:53.449Z,25.70
2018-06-11T10:37:00.015Z,25.70
2018-06-11T10:38:07.626Z,24.80
2018-06-11T10:39:17.197Z,25.00
2018-06-11T10:41:29.567Z,24.10
2018-06-11T10:42:35.096Z,23.20
2018-06-11T10:44:49.416Z,24.10
2018-06-11T10:45:55.585Z,23.00
2018-06-11T10:47:02.927Z,24.40
2018-06-11T10:48:10.335Z,24.30
2018-06-11T10:49:16.361Z,25.40
2018-06-11T10:50:23.206Z,26.50
2018-06-11T10:51:30.924Z,24.60
2018-06-11T10:52:37.318Z,24.70
2018-06-11T10:53:45.276Z,27.30
2018-06-11T10:54:51.068Z,25.60
2018-06-11T10:55:58.119Z,24.60
2018-06-11T10:58:12.278Z,25.30
2018-06-11T10:59:22.907Z,25.70
2018-06-11T11:00:31.916Z,25.60
2018-06-11T11:01:33.437Z,26.80
2018-06-11T11:02:41.040Z,24.20
2018-06-11T11:03:47.105Z,22.10
2018-06-11T11:05:01.332Z,24.40
2018-06-11T11:06:00.461Z,23.80
2018-06-11T11:07:08.481Z,25.30
2018-06-11T11:08:14.287Z,26.10
2018-06-11T11:09:21.704Z,26.90
2018-06-11T11:10:28.314Z,23.70
2018-06-11T11:11:38.267Z,23.00
2018-06-11T11:13:49.194Z,24.50
2018-06-11T11:15:01.500Z,23.60
2018-06-11T11:20:10.216Z,23.60
2018-06-11T11:21:17.534Z,25.80
2018-06-11T11:22:24.259Z,25.20
2018-06-11T11:23:32.567Z,25.80
2018-06-11T11:24:37.928Z,25.00
2018-06-11T11:26:51.711Z,23.70
2018-06-11T11:27:58.626Z,22.80
2018-06-11T11:29:06.243Z,24.80
2018-06-11T11:30:12.494Z,24.00
2018-06-11T11:31:19.182Z,24.10
2018-06-11T11:32:25.915Z,24.10
2018-06-11T11:33:32.655Z,26.80
2018-06-11T11:34:39.538Z,24.90
2018-06-11T11:35:46.323Z,25.50
2018-06-11T11:36:53.951Z,25.60
2018-06-11T11:38:00.143Z,24.80
2018-06-11T11:39:06.867Z,24.30
2018-06-11T11:40:13.619Z,24.50
2018-06-11T11:41:20.317Z,25.10
2018-06-11T11:42:27.152Z,25.10
2018-06-11T11:43:33.891Z,23.90
2018-06-11T11:44:41.470Z,24.90
2018-06-11T11:45:48.506Z,23.90
2018-06-11T11:46:54.619Z,24.80
2018-06-11T11:48:01.534Z,23.20
2018-06-11T11:49:07.998Z,23.80
2018-06-11T11:51:21.764Z,22.80
2018-06-11T11:52:28.546Z,23.90
2018-06-11T11:53:35.469Z,24.20
2018-06-11T11:54:43.098Z,22.40
2018-06-11T11:55:50.224Z,26.20
2018-06-11T11:57:05.592Z,25.60
2018-06-11T11:58:03.806Z,30.40
2018-06-11T11:59:10.260Z,25.30
2018-06-11T12:00:17.244Z,24.50
2018-06-11T12:01:23.950Z,25.50
2018-06-11T12:02:30.886Z,23.70
2018-06-11T12:03:38.478Z,24.40
2018-06-11T12:04:44.334Z,23.80
2018-06-11T12:05:51.150Z,24.30
2018-06-11T12:06:58.122Z,23.10
2018-06-11T12:08:05.057Z,24.90
2018-06-11T12:09:11.884Z,22.30
2018-06-11T12:10:18.621Z,24.10
2018-06-11T12:11:25.385Z,24.50
2018-06-11T12:12:32.090Z,24.30
2018-06-11T12:13:38.854Z,24.70
2018-06-11T12:14:45.850Z,23.80
2018-06-11T12:15:52.582Z,23.90
2018-06-11T12:16:59.347Z,22.00
2018-06-11T12:18:06.219Z,24.60
2018-06-11T12:20:21.430Z,22.30
2018-06-11T12:21:26.855Z,23.10
2018-06-11T12:22:33.782Z,24.40
2018-06-11T12:23:40.685Z,24.50
2018-06-11T12:25:54.412Z,24.00
2018-06-11T12:27:01.190Z,24.40
2018-06-11T12:28:07.917Z,23.30
2018-06-11T12:30:49.807Z,23.30
2018-06-11T12:31:56.711Z,23.60
2018-06-11T12:33:03.471Z,23.70
2018-06-11T12:34:10.430Z,22.00
2018-06-11T12:35:17.225Z,23.70
2018-06-11T12:36:24.039Z,21.80
2018-06-11T12:37:30.767Z,23.30
2018-06-11T12:38:37.451Z,22.20
2018-06-11T12:39:44.370Z,22.80
2018-06-11T12:40:51.031Z,22.40
2018-06-11T12:41:57.783Z,22.70
2018-06-11T12:43:04.499Z,24.00
2018-06-11T12:44:11.231Z,23.30
2018-06-11T12:45:17.944Z,23.90
2018-06-11T12:46:24.658Z,25.20
2018-06-11T12:47:31.420Z,24.30
2018-06-11T12:48:38.112Z,23.10
2018-06-11T12:49:44.935Z,23.30
2018-06-11T12:50:51.752Z,23.30
2018-06-11T12:51:58.436Z,23.70
2018-06-11T12:53:05.459Z,23.70
2018-06-11T12:54:12.426Z,22.50
2018-06-11T12:55:19.391Z,24.30
2018-06-11T12:56:26.629Z,22.60
2018-06-11T12:57:32.952Z,21.90
2018-06-11T12:58:39.766Z,22.80
2018-06-11T12:59:46.494Z,23.00
2018-06-11T13:00:53.203Z,22.10
2018-06-11T13:01:59.917Z,22.60
2018-06-11T13:03:06.880Z,22.70
2018-06-11T13:04:13.799Z,22.40
2018-06-11T13:05:20.744Z,22.90
2018-06-11T13:06:27.417Z,22.90
2018-06-11T13:07:34.163Z,24.20
2018-06-11T13:08:40.872Z,23.90
2018-06-11T13:09:47.807Z,24.10
2018-06-11T13:10:54.578Z,24.10
2018-06-11T13:12:01.451Z,25.80
2018-06-11T13:13:08.385Z,24.40
2018-06-11T13:14:15.279Z,23.30
2018-06-11T13:15:22.078Z,23.80
2018-06-11T13:16:28.832Z,23.30
2018-06-11T13:17:35.651Z,22.90
2018-06-11T13:18:42.353Z,22.40
2018-06-11T13:19:49.218Z,21.30
2018-06-11T13:20:55.873Z,22.60
2018-06-11T13:22:02.791Z,23.70
2018-06-11T13:23:09.467Z,21.70
2018-06-11T13:24:16.172Z,23.50
2018-06-11T13:25:22.938Z,23.30
2018-06-11T13:26:29.694Z,24.10
2018-06-11T13:27:36.441Z,24.50
2018-06-11T13:28:43.318Z,23.90
2018-06-11T13:30:57.307Z,24.70
2018-06-11T13:32:04.266Z,25.20
2018-06-11T13:33:11.060Z,25.00
2018-06-11T13:34:17.974Z,24.50
2018-06-11T13:35:24.687Z,24.60
2018-06-11T13:36:31.642Z,25.40
2018-06-11T13:37:38.300Z,23.80
2018-06-11T13:38:45.165Z,25.10
2018-06-11T13:39:51.846Z,24.60
2018-06-11T13:40:58.696Z,24.10
2018-06-11T13:42:05.497Z,23.80
2018-06-11T13:43:12.240Z,25.30
2018-06-11T13:44:19.062Z,24.70
2018-06-11T13:45:25.935Z,24.70
2018-06-11T13:46:32.898Z,24.70
2018-06-11T13:47:39.771Z,23.70
2018-06-11T13:48:46.739Z,26.20
2018-06-11T13:49:53.543Z,25.80
2018-06-11T13:51:00.531Z,24.30
2018-06-11T13:52:07.415Z,25.40
2018-06-11T13:53:14.128Z,24.10
2018-06-11T13:54:22.422Z,25.50
2018-06-11T13:55:27.831Z,24.90
2018-06-11T13:56:34.618Z,23.20
2018-06-11T13:57:41.393Z,27.00
2018-06-11T13:58:48.513Z,25.60
2018-06-11T13:59:55.474Z,26.80
2018-06-11T14:01:02.263Z,27.10
2018-06-11T14:02:09.107Z,26.60
2018-06-11T14:03:15.747Z,26.10
2018-06-11T14:04:22.542Z,25.80
2018-06-11T14:05:29.235Z,26.80
2018-06-11T14:06:35.913Z,27.50
2018-06-11T14:07:42.650Z,27.10
2018-06-11T14:08:49.367Z,26.70
2018-06-11T14:09:56.134Z,27.80
2018-06-11T14:11:02.845Z,27.20
2018-06-11T14:12:09.546Z,27.70
2018-06-11T14:13:16.266Z,26.80
2018-06-11T14:14:22.912Z,28.50
2018-06-11T14:15:30.245Z,28.00
2018-06-11T14:16:36.962Z,28.50
2018-06-11T14:17:43.666Z,29.40
2018-06-11T14:18:50.401Z,28.50
2018-06-11T14:19:57.068Z,30.30
2018-06-11T14:21:03.766Z,29.90
2018-06-11T14:22:10.503Z,29.50
2018-06-11T14:23:17.264Z,31.50
2018-06-11T14:24:23.930Z,31.90
2018-06-11T14:25:30.669Z,30.30
2018-06-11T14:26:37.479Z,27.90
2018-06-11T14:27:44.294Z,29.60
2018-06-11T14:28:51.118Z,29.30
2018-06-11T14:29:58.123Z,29.30
2018-06-11T14:31:04.994Z,30.30
2018-06-11T14:32:11.897Z,29.50
2018-06-11T14:33:18.879Z,27.90
2018-06-11T14:34:26.003Z,28.30
2018-06-11T14:35:33.030Z,27.60
2018-06-11T18:07:22.507Z,17.70
2018-06-11T18:13:22.318Z,17.40
2018-06-11T18:14:33.525Z,15.90